sensor_id;sensor_type;location;lat;lon;timestamp;pressure;altitude;pressure_sealevel;temperature;humidity
29239;BME280;16267;48.194;11.546;2023-12-29T00:02:26;96131.44;;;9.43;69.53
29239;BME280;16267;48.194;11.546;2023-12-29T00:04:52;96128.78;;;9.36;70.04
29239;BME280;16267;48.194;11.546;2023-12-29T00:07:17;96124.19;;;9.40;69.68
29239;BME280;16267;48.194;11.546;2023-12-29T00:09:43;96117.69;;;9.41;69.35
29239;BME280;16267;48.194;11.546;2023-12-29T00:12:09;96116.97;;;9.23;70.92
29239;BME280;16267;48.194;11.546;2023-12-29T00:14:39;96116.56;;;9.28;70.34
29239;BME280;16267;48.194;11.546;2023-12-29T00:17:05;96105.13;;;9.16;71.48
29239;BME280;16267;48.194;11.546;2023-12-29T00:19:31;96105.94;;;9.03;72.37
29239;BME280;16267;48.194;11.546;2023-12-29T00:21:57;96102.50;;;9.02;72.44
29239;BME280;16267;48.194;11.546;2023-12-29T00:24:33;96101.38;;;8.92;72.86
29239;BME280;16267;48.194;11.546;2023-12-29T00:26:59;96095.59;;;8.98;72.88
29239;BME280;16267;48.194;11.546;2023-12-29T00:29:25;96088.75;;;8.86;73.64
29239;BME280;16267;48.194;11.546;2023-12-29T00:31:53;96089.53;;;8.86;73.69
29239;BME280;16267;48.194;11.546;2023-12-29T00:34:19;96081.91;;;8.74;75.06
29239;BME280;16267;48.194;11.546;2023-12-29T00:36:45;96081.13;;;8.84;74.45
29239;BME280;16267;48.194;11.546;2023-12-29T00:39:10;96077.66;;;8.84;74.43
29239;BME280;16267;48.194;11.546;2023-12-29T00:41:36;96077.31;;;8.82;74.08
29239;BME280;16267;48.194;11.546;2023-12-29T00:44:02;96066.22;;;8.87;73.62
29239;BME280;16267;48.194;11.546;2023-12-29T00:46:27;96069.69;;;8.73;74.52
29239;BME280;16267;48.194;11.546;2023-12-29T00:48:53;96080.75;;;8.79;74.72
29239;BME280;16267;48.194;11.546;2023-12-29T00:51:19;96082.28;;;8.73;75.04
29239;BME280;16267;48.194;11.546;2023-12-29T00:53:45;96070.81;;;8.83;73.39
29239;BME280;16267;48.194;11.546;2023-12-29T00:56:11;96069.63;;;8.84;72.74
29239;BME280;16267;48.194;11.546;2023-12-29T00:58:38;96065.06;;;8.84;72.41
29239;BME280;16267;48.194;11.546;2023-12-29T01:01:06;96065.84;;;8.78;72.57
29239;BME280;16267;48.194;11.546;2023-12-29T01:03:34;96075.00;;;8.80;72.62
29239;BME280;16267;48.194;11.546;2023-12-29T01:06:00;96075.41;;;8.75;73.15
29239;BME280;16267;48.194;11.546;2023-12-29T01:08:26;96069.66;;;8.77;72.75
29239;BME280;16267;48.194;11.546;2023-12-29T01:10:52;96072.38;;;8.73;72.69
29239;BME280;16267;48.194;11.546;2023-12-29T01:13:17;96068.91;;;8.76;72.16
29239;BME280;16267;48.194;11.546;2023-12-29T01:15:43;96067.75;;;8.77;71.68
29239;BME280;16267;48.194;11.546;2023-12-29T01:18:12;96076.16;;;8.79;71.26
29239;BME280;16267;48.194;11.546;2023-12-29T01:20:38;96079.25;;;8.70;72.00
29239;BME280;16267;48.194;11.546;2023-12-29T01:23:05;96078.81;;;8.76;71.62
29239;BME280;16267;48.194;11.546;2023-12-29T01:25:31;96086.50;;;8.74;71.54
29239;BME280;16267;48.194;11.546;2023-12-29T01:27:56;96092.63;;;8.70;71.33
29239;BME280;16267;48.194;11.546;2023-12-29T01:30:23;96083.06;;;8.66;72.31
29239;BME280;16267;48.194;11.546;2023-12-29T01:32:49;96086.88;;;8.68;71.44
29239;BME280;16267;48.194;11.546;2023-12-29T01:35:20;96085.75;;;8.52;73.13
29239;BME280;16267;48.194;11.546;2023-12-29T01:37:46;96079.25;;;8.56;72.17
29239;BME280;16267;48.194;11.546;2023-12-29T01:40:12;96081.94;;;8.60;72.28
29239;BME280;16267;48.194;11.546;2023-12-29T01:42:38;96079.66;;;8.62;71.64
29239;BME280;16267;48.194;11.546;2023-12-29T01:45:06;96091.09;;;8.62;71.37
29239;BME280;16267;48.194;11.546;2023-12-29T01:47:41;96076.59;;;8.49;72.70
29239;BME280;16267;48.194;11.546;2023-12-29T01:50:07;96074.28;;;8.44;72.63
29239;BME280;16267;48.194;11.546;2023-12-29T01:52:36;96068.56;;;8.45;73.01
29239;BME280;16267;48.194;11.546;2023-12-29T01:55:02;96068.19;;;8.43;72.29
29239;BME280;16267;48.194;11.546;2023-12-29T01:57:28;96057.47;;;8.47;71.85
29239;BME280;16267;48.194;11.546;2023-12-29T01:59:54;96059.00;;;8.37;72.54
29239;BME280;16267;48.194;11.546;2023-12-29T02:02:20;96070.47;;;8.45;71.75
29239;BME280;16267;48.194;11.546;2023-12-29T02:04:46;96061.66;;;8.37;71.67
29239;BME280;16267;48.194;11.546;2023-12-29T02:07:12;96059.38;;;8.25;72.17
29239;BME280;16267;48.194;11.546;2023-12-29T02:09:38;96064.34;;;8.30;72.10
29239;BME280;16267;48.194;11.546;2023-12-29T02:12:05;96052.50;;;8.35;71.22
29239;BME280;16267;48.194;11.546;2023-12-29T02:14:31;96050.59;;;8.32;70.95
29239;BME280;16267;48.194;11.546;2023-12-29T02:17:15;96047.16;;;8.24;71.29
29239;BME280;16267;48.194;11.546;2023-12-29T02:19:46;96051.72;;;8.31;70.73
29239;BME280;16267;48.194;11.546;2023-12-29T02:22:14;96050.19;;;8.33;70.57
29239;BME280;16267;48.194;11.546;2023-12-29T02:24:53;96056.31;;;8.37;70.22
29239;BME280;16267;48.194;11.546;2023-12-29T02:30:38;96056.69;;;8.36;69.33
29239;BME280;16267;48.194;11.546;2023-12-29T02:33:10;96052.91;;;8.26;69.31
29239;BME280;16267;48.194;11.546;2023-12-29T02:35:43;96042.19;;;8.26;69.38
29239;BME280;16267;48.194;11.546;2023-12-29T02:38:10;96047.91;;;8.24;69.09
29239;BME280;16267;48.194;11.546;2023-12-29T02:40:40;96036.09;;;8.18;69.04
29239;BME280;16267;48.194;11.546;2023-12-29T02:43:11;96036.84;;;8.22;68.87
29239;BME280;16267;48.194;11.546;2023-12-29T02:45:36;96031.47;;;8.22;69.08
29239;BME280;16267;48.194;11.546;2023-12-29T02:48:02;96020.44;;;8.20;69.28
29239;BME280;16267;48.194;11.546;2023-12-29T02:50:28;96022.34;;;8.13;69.13
29239;BME280;16267;48.194;11.546;2023-12-29T02:52:54;96021.56;;;8.12;69.14
29239;BME280;16267;48.194;11.546;2023-12-29T02:55:19;96018.53;;;8.07;69.15
29239;BME280;16267;48.194;11.546;2023-12-29T02:57:45;96013.19;;;8.07;68.65
29239;BME280;16267;48.194;11.546;2023-12-29T03:00:11;96007.44;;;8.12;68.76
29239;BME280;16267;48.194;11.546;2023-12-29T03:02:37;96013.56;;;8.01;68.32
29239;BME280;16267;48.194;11.546;2023-12-29T03:05:12;96004.38;;;8.02;68.77
29239;BME280;16267;48.194;11.546;2023-12-29T03:07:38;96003.22;;;8.03;68.19
29239;BME280;16267;48.194;11.546;2023-12-29T03:10:06;96002.84;;;7.98;67.81
29239;BME280;16267;48.194;11.546;2023-12-29T03:12:31;95997.13;;;8.10;67.92
29239;BME280;16267;48.194;11.546;2023-12-29T03:14:57;96003.63;;;8.05;66.86
29239;BME280;16267;48.194;11.546;2023-12-29T03:17:23;96004.75;;;8.12;67.56
29239;BME280;16267;48.194;11.546;2023-12-29T03:19:49;96010.09;;;8.12;66.92
29239;BME280;16267;48.194;11.546;2023-12-29T03:22:14;96002.47;;;8.14;66.92
29239;BME280;16267;48.194;11.546;2023-12-29T03:24:41;96003.25;;;8.18;66.44
29239;BME280;16267;48.194;11.546;2023-12-29T03:27:08;96008.19;;;8.23;66.74
29239;BME280;16267;48.194;11.546;2023-12-29T03:29:33;96007.44;;;8.26;66.62
29239;BME280;16267;48.194;11.546;2023-12-29T03:31:59;96001.31;;;8.18;65.66
29239;BME280;16267;48.194;11.546;2023-12-29T03:34:25;95996.72;;;8.22;66.01
29239;BME280;16267;48.194;11.546;2023-12-29T03:36:51;95997.88;;;8.25;66.17
29239;BME280;16267;48.194;11.546;2023-12-29T03:39:19;95999.41;;;8.26;66.08
29239;BME280;16267;48.194;11.546;2023-12-29T03:41:44;95994.81;;;8.23;65.69
29239;BME280;16267;48.194;11.546;2023-12-29T03:44:10;96006.28;;;8.23;65.97
29239;BME280;16267;48.194;11.546;2023-12-29T03:46:36;95997.47;;;8.23;65.98
29239;BME280;16267;48.194;11.546;2023-12-29T03:49:01;96002.81;;;8.23;65.66
29239;BME280;16267;48.194;11.546;2023-12-29T03:51:28;96004.00;;;8.22;65.12
29239;BME280;16267;48.194;11.546;2023-12-29T03:53:54;96000.94;;;8.20;64.98
29239;BME280;16267;48.194;11.546;2023-12-29T03:56:20;95999.78;;;8.17;64.96
29239;BME280;16267;48.194;11.546;2023-12-29T03:58:46;95991.38;;;8.19;65.25
29239;BME280;16267;48.194;11.546;2023-12-29T04:01:16;95998.25;;;8.16;65.71
29239;BME280;16267;48.194;11.546;2023-12-29T04:03:43;95991.75;;;8.17;65.19
29239;BME280;16267;48.194;11.546;2023-12-29T04:06:09;95985.66;;;8.20;64.72
29239;BME280;16267;48.194;11.546;2023-12-29T04:08:36;95983.75;;;8.21;64.46
29239;BME280;16267;48.194;11.546;2023-12-29T04:11:04;95985.28;;;8.18;65.09
29239;BME280;16267;48.194;11.546;2023-12-29T04:13:30;95982.59;;;8.18;64.09
29239;BME280;16267;48.194;11.546;2023-12-29T04:15:56;95978.78;;;8.19;64.95
29239;BME280;16267;48.194;11.546;2023-12-29T04:18:24;95980.31;;;8.17;64.17
29239;BME280;16267;48.194;11.546;2023-12-29T04:20:50;95978.78;;;8.16;64.32
29239;BME280;16267;48.194;11.546;2023-12-29T04:23:16;95978.41;;;8.14;63.40
29239;BME280;16267;48.194;11.546;2023-12-29T04:25:42;95980.31;;;8.13;63.28
29239;BME280;16267;48.194;11.546;2023-12-29T04:28:08;95976.88;;;8.13;63.53
29239;BME280;16267;48.194;11.546;2023-12-29T04:30:35;95981.47;;;8.12;63.06
29239;BME280;16267;48.194;11.546;2023-12-29T04:33:01;95975.72;;;8.17;63.04
29239;BME280;16267;48.194;11.546;2023-12-29T04:35:26;95977.25;;;8.22;63.02
29239;BME280;16267;48.194;11.546;2023-12-29T04:37:52;95971.94;;;8.15;62.49
29239;BME280;16267;48.194;11.546;2023-12-29T04:40:18;95977.63;;;8.24;62.94
29239;BME280;16267;48.194;11.546;2023-12-29T04:42:44;95971.16;;;8.29;63.01
29239;BME280;16267;48.194;11.546;2023-12-29T04:45:10;95972.66;;;8.22;62.34
29239;BME280;16267;48.194;11.546;2023-12-29T04:47:37;95969.22;;;8.25;62.89
29239;BME280;16267;48.194;11.546;2023-12-29T04:50:04;95971.13;;;8.32;62.88
29239;BME280;16267;48.194;11.546;2023-12-29T04:52:31;95974.94;;;8.31;62.51
29239;BME280;16267;48.194;11.546;2023-12-29T04:54:57;95974.94;;;8.38;62.47
29239;BME280;16267;48.194;11.546;2023-12-29T04:57:22;95971.50;;;8.41;62.05
29239;BME280;16267;48.194;11.546;2023-12-29T04:59:48;95971.13;;;8.43;62.09
29239;BME280;16267;48.194;11.546;2023-12-29T05:02:14;95969.22;;;8.47;62.23
29239;BME280;16267;48.194;11.546;2023-12-29T05:04:40;95979.53;;;8.48;62.85
29239;BME280;16267;48.194;11.546;2023-12-29T05:07:08;95969.19;;;8.51;62.15
29239;BME280;16267;48.194;11.546;2023-12-29T05:09:34;95969.56;;;8.53;62.69
29239;BME280;16267;48.194;11.546;2023-12-29T05:12:00;95973.78;;;8.57;62.29
29239;BME280;16267;48.194;11.546;2023-12-29T05:14:25;95965.72;;;8.64;62.99
29239;BME280;16267;48.194;11.546;2023-12-29T05:16:51;95963.44;;;8.63;62.04
29239;BME280;16267;48.194;11.546;2023-12-29T05:19:17;95968.03;;;8.62;62.76
29239;BME280;16267;48.194;11.546;2023-12-29T05:21:43;95977.56;;;8.63;62.73
29239;BME280;16267;48.194;11.546;2023-12-29T05:24:08;95967.22;;;8.69;62.68
29239;BME280;16267;48.194;11.546;2023-12-29T05:26:34;95964.91;;;8.78;62.83
29239;BME280;16267;48.194;11.546;2023-12-29T05:29:00;95964.91;;;8.82;62.82
29239;BME280;16267;48.194;11.546;2023-12-29T05:31:26;95969.06;;;8.86;63.07
29239;BME280;16267;48.194;11.546;2023-12-29T05:33:51;95972.88;;;8.89;62.69
29239;BME280;16267;48.194;11.546;2023-12-29T05:36:18;95982.84;;;8.88;62.99
29239;BME280;16267;48.194;11.546;2023-12-29T05:38:46;95979.78;;;8.90;63.20
29239;BME280;16267;48.194;11.546;2023-12-29T05:41:15;95985.84;;;8.98;63.57
29239;BME280;16267;48.194;11.546;2023-12-29T05:43:41;95985.09;;;9.01;63.56
29239;BME280;16267;48.194;11.546;2023-12-29T05:46:11;95991.97;;;9.02;63.28
29239;BME280;16267;48.194;11.546;2023-12-29T05:48:38;95985.09;;;8.97;63.35
29239;BME280;16267;48.194;11.546;2023-12-29T05:51:12;95985.09;;;9.01;63.25
29239;BME280;16267;48.194;11.546;2023-12-29T05:53:42;95984.69;;;9.02;62.97
29239;BME280;16267;48.194;11.546;2023-12-29T05:56:13;95981.25;;;9.02;63.10
29239;BME280;16267;48.194;11.546;2023-12-29T05:58:43;95985.06;;;9.08;63.05
29239;BME280;16267;48.194;11.546;2023-12-29T06:01:10;95982.34;;;9.11;63.01
29239;BME280;16267;48.194;11.546;2023-12-29T06:03:36;95992.72;;;9.09;62.95
29239;BME280;16267;48.194;11.546;2023-12-29T06:06:04;95988.50;;;9.05;63.02
29239;BME280;16267;48.194;11.546;2023-12-29T06:08:30;95997.28;;;9.09;62.65
29239;BME280;16267;48.194;11.546;2023-12-29T06:10:56;95990.44;;;9.04;62.66
29239;BME280;16267;48.194;11.546;2023-12-29T06:13:22;95995.75;;;9.08;62.76
29239;BME280;16267;48.194;11.546;2023-12-29T06:15:48;95991.53;;;9.14;63.30
29239;BME280;16267;48.194;11.546;2023-12-29T06:18:14;95991.16;;;9.15;62.36
29239;BME280;16267;48.194;11.546;2023-12-29T06:20:41;95991.88;;;9.20;62.46
29239;BME280;16267;48.194;11.546;2023-12-29T06:23:07;95986.13;;;9.21;62.33
29239;BME280;16267;48.194;11.546;2023-12-29T06:25:32;95992.66;;;9.20;62.23
29239;BME280;16267;48.194;11.546;2023-12-29T06:28:00;95991.94;;;9.12;61.96
29239;BME280;16267;48.194;11.546;2023-12-29T06:30:25;95996.91;;;9.10;61.95
29239;BME280;16267;48.194;11.546;2023-12-29T06:32:51;95999.19;;;9.15;62.08
29239;BME280;16267;48.194;11.546;2023-12-29T06:35:17;95998.00;;;9.16;61.72
29239;BME280;16267;48.194;11.546;2023-12-29T06:37:43;95991.50;;;9.21;61.80
29239;BME280;16267;48.194;11.546;2023-12-29T06:40:09;95996.84;;;9.21;62.11
29239;BME280;16267;48.194;11.546;2023-12-29T06:42:35;95994.16;;;9.25;62.11
29239;BME280;16267;48.194;11.546;2023-12-29T06:45:01;96001.84;;;9.15;62.14
29239;BME280;16267;48.194;11.546;2023-12-29T06:47:27;95998.03;;;9.13;61.73
29239;BME280;16267;48.194;11.546;2023-12-29T06:49:52;96007.63;;;9.07;61.45
29239;BME280;16267;48.194;11.546;2023-12-29T06:52:18;95999.56;;;9.10;61.60
29239;BME280;16267;48.194;11.546;2023-12-29T06:54:44;95992.66;;;9.16;61.88
29239;BME280;16267;48.194;11.546;2023-12-29T06:57:10;96001.09;;;9.15;61.53
29239;BME280;16267;48.194;11.546;2023-12-29T06:59:36;96005.66;;;9.22;61.28
29239;BME280;16267;48.194;11.546;2023-12-29T07:02:02;96005.66;;;9.18;61.29
29239;BME280;16267;48.194;11.546;2023-12-29T07:04:28;96012.53;;;9.19;61.52
29239;BME280;16267;48.194;11.546;2023-12-29T07:06:54;96004.47;;;9.23;61.80
29239;BME280;16267;48.194;11.546;2023-12-29T07:09:19;96004.84;;;9.25;62.28
29239;BME280;16267;48.194;11.546;2023-12-29T07:11:49;95998.78;;;9.21;62.51
29239;BME280;16267;48.194;11.546;2023-12-29T07:14:15;96004.47;;;9.23;62.73
29239;BME280;16267;48.194;11.546;2023-12-29T07:16:41;95999.13;;;9.26;63.28
29239;BME280;16267;48.194;11.546;2023-12-29T07:19:07;96000.66;;;9.24;63.78
29239;BME280;16267;48.194;11.546;2023-12-29T07:21:32;96011.72;;;9.29;64.22
29239;BME280;16267;48.194;11.546;2023-12-29T07:23:58;96003.69;;;9.29;65.24
29239;BME280;16267;48.194;11.546;2023-12-29T07:26:24;96010.63;;;9.23;66.46
29239;BME280;16267;48.194;11.546;2023-12-29T07:28:50;96007.50;;;9.28;67.04
29239;BME280;16267;48.194;11.546;2023-12-29T07:31:20;96012.88;;;9.28;67.72
29239;BME280;16267;48.194;11.546;2023-12-29T07:33:46;96005.22;;;9.34;67.93
29239;BME280;16267;48.194;11.546;2023-12-29T07:36:12;96019.72;;;9.40;68.29
29239;BME280;16267;48.194;11.546;2023-12-29T07:38:38;96018.97;;;9.40;68.74
29239;BME280;16267;48.194;11.546;2023-12-29T07:41:05;96012.13;;;9.24;70.65
29239;BME280;16267;48.194;11.546;2023-12-29T07:43:32;96015.56;;;9.25;71.21
29239;BME280;16267;48.194;11.546;2023-12-29T07:45:58;96022.81;;;9.28;71.74
29239;BME280;16267;48.194;11.546;2023-12-29T07:48:29;96009.84;;;9.26;72.69
29239;BME280;16267;48.194;11.546;2023-12-29T07:50:57;96012.88;;;9.28;72.98
29239;BME280;16267;48.194;11.546;2023-12-29T07:53:24;96007.09;;;9.33;72.69
29239;BME280;16267;48.194;11.546;2023-12-29T07:55:49;96011.72;;;9.29;73.75
29239;BME280;16267;48.194;11.546;2023-12-29T07:58:17;96001.00;;;9.33;73.56
29239;BME280;16267;48.194;11.546;2023-12-29T08:00:43;96007.91;;;9.34;73.64
29239;BME280;16267;48.194;11.546;2023-12-29T08:03:09;96009.06;;;9.29;74.29
29239;BME280;16267;48.194;11.546;2023-12-29T08:05:35;96019.75;;;9.33;74.18
29239;BME280;16267;48.194;11.546;2023-12-29T08:08:00;96028.53;;;9.37;74.29
29239;BME280;16267;48.194;11.546;2023-12-29T08:10:26;96034.25;;;9.39;74.28
29239;BME280;16267;48.194;11.546;2023-12-29T08:12:52;96031.97;;;9.37;74.46
29239;BME280;16267;48.194;11.546;2023-12-29T08:15:18;96043.13;;;9.29;75.24
29239;BME280;16267;48.194;11.546;2023-12-29T08:17:44;96027.78;;;9.33;75.19
29239;BME280;16267;48.194;11.546;2023-12-29T08:20:11;96034.69;;;9.34;75.23
29239;BME280;16267;48.194;11.546;2023-12-29T08:22:36;96035.06;;;9.32;75.31
29239;BME280;16267;48.194;11.546;2023-12-29T08:25:03;96036.94;;;9.35;75.50
29239;BME280;16267;48.194;11.546;2023-12-29T08:27:29;96032.75;;;9.34;75.35
29239;BME280;16267;48.194;11.546;2023-12-29T08:29:55;96034.25;;;9.39;75.23
29239;BME280;16267;48.194;11.546;2023-12-29T08:32:21;96040.00;;;9.41;74.98
29239;BME280;16267;48.194;11.546;2023-12-29T08:34:47;96039.59;;;9.46;74.52
29239;BME280;16267;48.194;11.546;2023-12-29T08:37:13;96035.38;;;9.45;74.71
29239;BME280;16267;48.194;11.546;2023-12-29T08:39:48;96041.47;;;9.49;74.47
29239;BME280;16267;48.194;11.546;2023-12-29T08:42:14;96043.06;;;9.40;74.41
29239;BME280;16267;48.194;11.546;2023-12-29T08:44:40;96042.63;;;9.45;74.58
29239;BME280;16267;48.194;11.546;2023-12-29T08:47:06;96039.97;;;9.48;74.55
29239;BME280;16267;48.194;11.546;2023-12-29T08:49:38;96041.81;;;9.55;73.98
29239;BME280;16267;48.194;11.546;2023-12-29T08:52:06;96031.94;;;9.48;74.33
29239;BME280;16267;48.194;11.546;2023-12-29T08:54:32;96029.59;;;9.54;74.30
29239;BME280;16267;48.194;11.546;2023-12-29T08:56:58;96031.50;;;9.57;73.97
29239;BME280;16267;48.194;11.546;2023-12-29T08:59:23;96039.16;;;9.55;74.17
29239;BME280;16267;48.194;11.546;2023-12-29T09:01:49;96041.81;;;9.58;74.07
29239;BME280;16267;48.194;11.546;2023-12-29T09:04:15;96039.88;;;9.63;74.24
29239;BME280;16267;48.194;11.546;2023-12-29T09:06:41;96043.72;;;9.58;74.43
29239;BME280;16267;48.194;11.546;2023-12-29T09:09:06;96052.91;;;9.60;74.49
29239;BME280;16267;48.194;11.546;2023-12-29T09:11:32;96048.72;;;9.59;74.44
29239;BME280;16267;48.194;11.546;2023-12-29T09:13:58;96050.53;;;9.70;74.25
29239;BME280;16267;48.194;11.546;2023-12-29T09:16:23;96053.19;;;9.77;74.14
29239;BME280;16267;48.194;11.546;2023-12-29T09:18:49;96056.97;;;9.87;74.18
29239;BME280;16267;48.194;11.546;2023-12-29T09:21:27;96061.94;;;9.88;73.99
29239;BME280;16267;48.194;11.546;2023-12-29T09:23:53;96060.00;;;9.89;73.79
29239;BME280;16267;48.194;11.546;2023-12-29T09:26:19;96055.78;;;9.91;73.74
29239;BME280;16267;48.194;11.546;2023-12-29T09:28:45;96055.31;;;10.00;73.37
29239;BME280;16267;48.194;11.546;2023-12-29T09:31:21;96056.47;;;10.02;73.20
29239;BME280;16267;48.194;11.546;2023-12-29T09:33:47;96056.38;;;10.13;72.70
29239;BME280;16267;48.194;11.546;2023-12-29T09:36:12;96056.38;;;10.13;72.50
29239;BME280;16267;48.194;11.546;2023-12-29T09:38:38;96054.84;;;10.16;72.85
29239;BME280;16267;48.194;11.546;2023-12-29T09:41:14;96050.56;;;10.22;71.95
29239;BME280;16267;48.194;11.546;2023-12-29T09:43:43;96049.00;;;10.32;72.31
29239;BME280;16267;48.194;11.546;2023-12-29T09:46:11;96049.34;;;10.37;71.74
29239;BME280;16267;48.194;11.546;2023-12-29T09:48:39;96046.63;;;10.41;71.50
29239;BME280;16267;48.194;11.546;2023-12-29T09:51:07;96049.63;;;10.46;71.41
29239;BME280;16267;48.194;11.546;2023-12-29T09:53:35;96053.09;;;10.43;71.42
29239;BME280;16267;48.194;11.546;2023-12-29T09:56:02;96050.34;;;10.54;71.42
29239;BME280;16267;48.194;11.546;2023-12-29T09:58:29;96049.50;;;10.61;71.14
29239;BME280;16267;48.194;11.546;2023-12-29T10:00:54;96043.69;;;10.66;70.98
29239;BME280;16267;48.194;11.546;2023-12-29T10:03:20;96039.44;;;10.68;70.90
29239;BME280;16267;48.194;11.546;2023-12-29T10:05:51;96024.03;;;10.76;71.19
29239;BME280;16267;48.194;11.546;2023-12-29T10:08:21;96024.09;;;10.73;71.07
29239;BME280;16267;48.194;11.546;2023-12-29T10:10:48;96022.47;;;10.79;71.42
29239;BME280;16267;48.194;11.546;2023-12-29T10:13:16;96025.50;;;10.81;71.53
29239;BME280;16267;48.194;11.546;2023-12-29T10:15:51;96019.44;;;10.77;71.79
29239;BME280;16267;48.194;11.546;2023-12-29T10:18:37;96012.44;;;10.86;71.96
29239;BME280;16267;48.194;11.546;2023-12-29T10:21:29;96010.06;;;10.92;71.91
29239;BME280;16267;48.194;11.546;2023-12-29T10:24:27;96000.78;;;10.97;72.20
29239;BME280;16267;48.194;11.546;2023-12-29T10:26:54;95987.38;;;10.97;72.49
29239;BME280;16267;48.194;11.546;2023-12-29T10:29:21;95989.84;;;10.80;73.68
29239;BME280;16267;48.194;11.546;2023-12-29T10:31:47;95985.81;;;10.99;73.15
29239;BME280;16267;48.194;11.546;2023-12-29T10:34:25;95979.19;;;11.07;73.16
29239;BME280;16267;48.194;11.546;2023-12-29T10:37:01;95985.63;;;11.13;72.94
29239;BME280;16267;48.194;11.546;2023-12-29T10:39:55;95981.88;;;11.07;73.15
29239;BME280;16267;48.194;11.546;2023-12-29T10:42:22;95979.19;;;11.07;73.29
29239;BME280;16267;48.194;11.546;2023-12-29T10:44:47;95974.94;;;11.10;73.33
29239;BME280;16267;48.194;11.546;2023-12-29T10:47:29;95975.63;;;11.14;73.30
29239;BME280;16267;48.194;11.546;2023-12-29T10:49:59;95973.41;;;11.09;73.43
29239;BME280;16267;48.194;11.546;2023-12-29T10:52:25;95981.44;;;11.12;73.35
29239;BME280;16267;48.194;11.546;2023-12-29T10:55:10;95975.31;;;11.08;74.07
29239;BME280;16267;48.194;11.546;2023-12-29T10:57:37;95973.09;;;11.03;74.10
29239;BME280;16267;48.194;11.546;2023-12-29T11:00:05;95966.50;;;11.08;74.02
29239;BME280;16267;48.194;11.546;2023-12-29T11:02:34;95964.13;;;11.13;73.74
29239;BME280;16267;48.194;11.546;2023-12-29T11:05:07;95961.13;;;11.08;73.91
29239;BME280;16267;48.194;11.546;2023-12-29T11:07:39;95956.38;;;11.19;73.66
29239;BME280;16267;48.194;11.546;2023-12-29T11:10:09;95960.31;;;11.14;73.45
29239;BME280;16267;48.194;11.546;2023-12-29T11:12:36;95958.25;;;11.22;73.80
29239;BME280;16267;48.194;11.546;2023-12-29T11:15:05;95958.47;;;11.35;73.36
29239;BME280;16267;48.194;11.546;2023-12-29T11:17:36;95962.97;;;11.42;73.15
29239;BME280;16267;48.194;11.546;2023-12-29T11:20:04;95952.91;;;11.49;72.76
29239;BME280;16267;48.194;11.546;2023-12-29T11:22:31;95949.06;;;11.50;72.60
29239;BME280;16267;48.194;11.546;2023-12-29T11:24:58;95946.00;;;11.48;72.06
29239;BME280;16267;48.194;11.546;2023-12-29T11:27:29;95946.72;;;11.52;72.24
29239;BME280;16267;48.194;11.546;2023-12-29T11:29:58;95940.47;;;11.59;72.22
29239;BME280;16267;48.194;11.546;2023-12-29T11:32:59;95944.16;;;11.69;71.59
29239;BME280;16267;48.194;11.546;2023-12-29T11:35:54;95937.50;;;11.77;70.80
29239;BME280;16267;48.194;11.546;2023-12-29T11:43:30;95928.94;;;12.09;69.80
29239;BME280;16267;48.194;11.546;2023-12-29T11:45:56;95936.28;;;11.81;69.82
29239;BME280;16267;48.194;11.546;2023-12-29T11:48:53;95929.44;;;11.77;70.47
29239;BME280;16267;48.194;11.546;2023-12-29T11:51:36;95926.16;;;11.66;70.71
29239;BME280;16267;48.194;11.546;2023-12-29T11:54:08;95921.31;;;11.57;71.38
29239;BME280;16267;48.194;11.546;2023-12-29T11:56:39;95924.00;;;11.57;71.28
29239;BME280;16267;48.194;11.546;2023-12-29T11:59:23;95922.94;;;11.74;71.39
29239;BME280;16267;48.194;11.546;2023-12-29T12:01:57;95911.78;;;11.76;71.01
29239;BME280;16267;48.194;11.546;2023-12-29T12:04:41;95916.97;;;11.63;71.25
29239;BME280;16267;48.194;11.546;2023-12-29T12:07:15;95918.97;;;11.59;71.01
29239;BME280;16267;48.194;11.546;2023-12-29T12:09:44;95912.25;;;11.71;71.15
29239;BME280;16267;48.194;11.546;2023-12-29T12:12:10;95913.06;;;11.68;70.95
29239;BME280;16267;48.194;11.546;2023-12-29T12:14:53;95911.34;;;11.81;70.95
29239;BME280;16267;48.194;11.546;2023-12-29T12:17:39;95913.66;;;11.79;70.34
29239;BME280;16267;48.194;11.546;2023-12-29T12:20:09;95907.44;;;11.86;70.16
29239;BME280;16267;48.194;11.546;2023-12-29T12:22:36;95896.03;;;11.78;69.68
29239;BME280;16267;48.194;11.546;2023-12-29T12:25:03;95896.03;;;11.78;69.86
29239;BME280;16267;48.194;11.546;2023-12-29T12:27:31;95898.00;;;11.74;70.13
29239;BME280;16267;48.194;11.546;2023-12-29T12:29:59;95896.72;;;11.82;69.66
29239;BME280;16267;48.194;11.546;2023-12-29T12:32:29;95891.44;;;11.75;69.62
29239;BME280;16267;48.194;11.546;2023-12-29T12:34:56;95899.94;;;11.73;69.94
29239;BME280;16267;48.194;11.546;2023-12-29T12:37:29;95903.00;;;11.72;69.48
29239;BME280;16267;48.194;11.546;2023-12-29T12:39:55;95893.16;;;11.65;69.33
29239;BME280;16267;48.194;11.546;2023-12-29T12:42:22;95890.69;;;11.74;69.76
29239;BME280;16267;48.194;11.546;2023-12-29T12:47:25;95896.28;;;11.87;69.03
29239;BME280;16267;48.194;11.546;2023-12-29T12:49:51;95899.34;;;11.86;68.68
29239;BME280;16267;48.194;11.546;2023-12-29T12:52:17;95910.50;;;11.84;68.35
29239;BME280;16267;48.194;11.546;2023-12-29T12:54:44;95901.78;;;11.76;68.00
29239;BME280;16267;48.194;11.546;2023-12-29T12:57:10;95907.25;;;11.73;67.84
29239;BME280;16267;48.194;11.546;2023-12-29T12:59:36;95909.47;;;11.78;68.54
29239;BME280;16267;48.194;11.546;2023-12-29T13:02:03;95916.69;;;11.57;68.34
29239;BME280;16267;48.194;11.546;2023-12-29T13:04:31;95910.09;;;11.62;68.35
29239;BME280;16267;48.194;11.546;2023-12-29T13:06:57;95898.97;;;11.60;68.41
29239;BME280;16267;48.194;11.546;2023-12-29T13:09:23;95902.44;;;11.60;68.59
29239;BME280;16267;48.194;11.546;2023-12-29T13:11:49;95907.19;;;11.53;68.41
29239;BME280;16267;48.194;11.546;2023-12-29T13:14:22;95902.59;;;11.50;68.09